Lancaster, Iowa
Current Conditions -  °F | °C
As of 3:55 PM on Tuesday 25 Nov 2014 (Local Time) from KOOA Reporting Station
Clear Clear  
Wind Chill: 33°   Ceiling: Unl
Heat Index: 33°   Visibility: 10mi
Dew Point: 16°   Wind: 0mph
Humidity: 50%   Direction: NA
Pressure: 30.1"   Gusts: NA
Location:  41.331°N, 92.1821°W
Report Text: KOOA 252155Z AUTO 00000KT 10SM CLR 00/M09 A3010 RMK AO2 T00031091
Loading
Personal Weather Stations






























Interactive Weather Map New forecast layout! Learn more

10-Day Weather Forecast

Advertisements
Track Severe Weather on mobile